Time;durP1;ratioP1;P1;durP2;ratioP2;P2;SDS_P1;SDS_P2;PMS_P1;PMS_P2;Temp;Humidity;BMP_temperature;BMP_pressure;BME280_temperature;BME280_humidity;BME280_pressure;Samples;Min_cycle;Max_cycle;Signal;HPM_P1;HPM_P2
2022/09/13 00:00:42;;;;;;;11.00;5.53;;;;;;;9.40;100.00;95282.09;5088259;28;20044;-76
2022/09/13 00:03:26;;;;;;;9.57;5.07;;;;;;;9.32;100.00;95276.34;5090445;28;20047;-76
2022/09/13 00:05:51;;;;;;;14.38;5.82;;;;;;;9.38;100.00;95273.69;5089531;28;20040;-76
2022/09/13 00:08:18;;;;;;;12.48;5.55;;;;;;;9.35;100.00;95275.00;5086722;28;20045;-76
2022/09/13 00:10:44;;;;;;;13.45;6.15;;;;;;;9.25;100.00;95275.03;5089598;28;20036;-76
2022/09/13 00:13:12;;;;;;;10.57;5.47;;;;;;;9.35;100.00;95267.13;5088251;28;20051;-76
2022/09/13 00:15:43;;;;;;;11.60;5.93;;;;;;;9.31;100.00;95263.44;5090034;28;20076;-76
2022/09/13 00:18:08;;;;;;;11.52;5.60;;;;;;;9.14;100.00;95264.56;5092007;28;20063;-76
2022/09/13 00:20:34;;;;;;;11.50;6.10;;;;;;;9.14;100.00;95269.78;5103422;28;20039;-76
2022/09/13 00:22:59;;;;;;;11.23;6.03;;;;;;;9.17;100.00;95264.00;5089862;28;20044;-76
2022/09/13 00:25:25;;;;;;;10.25;4.75;;;;;;;9.12;100.00;95255.34;5089811;28;20040;-76
2022/09/13 00:27:50;;;;;;;11.18;5.35;;;;;;;9.09;100.00;95246.16;5090658;28;20514;-76
2022/09/13 00:30:16;;;;;;;9.52;4.80;;;;;;;9.14;100.00;95254.03;5075508;28;20048;-76
2022/09/13 00:32:41;;;;;;;11.45;5.60;;;;;;;9.01;100.00;95239.63;5086608;28;20043;-76
2022/09/13 00:35:07;;;;;;;9.98;5.15;;;;;;;9.01;100.00;95244.09;5090829;28;20599;-76
2022/09/13 00:37:33;;;;;;;17.13;5.70;;;;;;;9.04;100.00;95242.75;5088567;28;20040;-76
2022/09/13 00:40:00;;;;;;;11.02;5.18;;;;;;;9.12;100.00;95235.16;5095037;28;20552;-76
2022/09/13 00:42:27;;;;;;;14.20;5.10;;;;;;;9.10;100.00;95232.00;5080540;28;20045;-76
2022/09/13 00:45:13;;;;;;;10.25;5.50;;;;;;;9.06;100.00;95241.47;5095381;28;20077;-76
2022/09/13 00:47:46;;;;;;;10.05;5.43;;;;;;;9.06;100.00;95236.22;5090186;28;20040;-75
2022/09/13 00:50:14;;;;;;;10.65;5.35;;;;;;;9.02;100.00;95238.59;5097857;28;20044;-76
2022/09/13 00:52:43;;;;;;;10.00;5.20;;;;;;;9.08;100.00;95241.19;5089906;28;20036;-75
2022/09/13 00:55:51;;;;;;;13.85;5.40;;;;;;;8.99;100.00;95243.56;5091192;28;20111;-76
2022/09/13 00:58:26;;;;;;;8.85;4.82;;;;;;;8.88;100.00;95244.63;5080404;28;20041;-75
2022/09/13 01:00:52;;;;;;;;;;;;;;;9.00;100.00;95238.06;5121290;28;20046;-76
2022/09/13 01:03:21;;;;;;;13.02;4.70;;;;;;;8.90;100.00;95237.31;5107459;28;19978;-75
2022/09/13 01:06:00;;;;;;;8.77;4.70;;;;;;;8.73;100.00;95248.84;5119024;28;20020;-75
2022/09/13 01:08:30;;;;;;;10.57;5.00;;;;;;;8.89;100.00;95225.22;5114731;28;20322;-76
2022/09/13 01:10:58;;;;;;;9.27;4.93;;;;;;;8.87;100.00;95224.72;5115477;28;20031;-76
2022/09/13 01:13:31;;;;;;;8.85;4.65;;;;;;;8.77;100.00;95225.50;5122369;28;20059;-75
2022/09/13 01:15:58;;;;;;;7.78;4.95;;;;;;;8.75;100.00;95220.53;5121954;28;20032;-75
2022/09/13 01:18:24;;;;;;;13.57;4.93;;;;;;;8.72;100.00;95210.56;5117867;28;20031;-75
2022/09/13 01:21:18;;;;;;;11.15;4.97;;;;;;;8.76;100.00;95201.09;5113596;28;20050;-74
2022/09/13 01:23:52;;;;;;;8.10;4.57;;;;;;;8.74;100.00;95203.19;5112406;28;20032;-75
2022/09/13 01:26:29;;;;;;;8.95;4.60;;;;;;;8.67;100.00;95202.69;5111913;28;20043;-76
2022/09/13 01:29:21;;;;;;;7.47;4.53;;;;;;;8.43;100.00;95208.47;5075535;28;20066;-76
2022/09/13 01:32:08;;;;;;;12.18;4.88;;;;;;;8.65;100.00;95215.28;5093568;28;20440;-75
2022/09/13 01:35:08;;;;;;;10.90;5.78;;;;;;;8.65;100.00;95204.81;5083447;28;20072;-75
2022/09/13 01:37:37;;;;;;;9.20;4.68;;;;;;;8.68;100.00;95199.03;5082393;28;20048;-76
2022/09/13 01:40:16;;;;;;;10.05;4.68;;;;;;;8.57;100.00;95202.69;5086549;28;20086;-76
2022/09/13 01:42:59;;;;;;;10.30;4.80;;;;;;;8.57;100.00;95202.69;5090401;28;20158;-75
2022/09/13 01:45:43;;;;;;;8.68;4.57;;;;;;;8.51;100.00;95203.75;5100117;27;20517;-75
2022/09/13 01:48:19;;;;;;;11.15;4.70;;;;;;;8.55;100.00;95202.16;5094467;28;20040;-74
2022/09/13 01:50:52;;;;;;;16.85;4.90;;;;;;;8.44;100.00;95198.75;5089921;28;20047;-75
2022/09/13 01:53:20;;;;;;;12.60;4.70;;;;;;;8.36;100.00;95197.44;5088981;28;20418;-75
2022/09/13 01:56:04;;;;;;;8.70;4.50;;;;;;;8.33;100.00;95192.69;5089400;28;20040;-75
2022/09/13 01:58:36;;;;;;;11.75;4.30;;;;;;;8.29;100.00;95202.16;5091760;28;20131;-75
2022/09/13 02:01:10;;;;;;;8.98;4.72;;;;;;;8.33;100.00;95201.38;5079863;28;20050;-75
2022/09/13 02:03:44;;;;;;;11.05;4.47;;;;;;;8.31;100.00;95192.19;5094621;28;20035;-76
2022/09/13 02:06:22;;;;;;;9.63;4.60;;;;;;;8.24;100.00;95189.03;5092129;28;20028;-76
2022/09/13 02:08:55;;;;;;;12.05;5.13;;;;;;;8.03;100.00;95196.91;5089692;28;20077;-75
2022/09/13 02:11:22;;;;;;;10.65;4.55;;;;;;;8.06;100.00;95199.00;5087112;28;20048;-76
2022/09/13 02:13:57;;;;;;;11.63;4.88;;;;;;;8.19;100.00;95199.50;5089377;28;20040;-76
2022/09/13 02:16:41;;;;;;;12.38;5.28;;;;;;;8.19;100.00;95196.88;5089332;28;20548;-76
2022/09/13 02:19:20;;;;;;;9.65;4.60;;;;;;;8.30;100.00;95194.03;5081285;28;20732;-76
2022/09/13 02:21:52;;;;;;;10.48;4.50;;;;;;;8.09;100.00;95187.97;5090477;28;20062;-76
2022/09/13 02:24:28;;;;;;;8.48;4.30;;;;;;;8.02;100.00;95197.94;5097069;28;20086;-76
2022/09/13 02:26:56;;;;;;;8.23;4.60;;;;;;;8.08;100.00;95201.34;5094104;28;20043;-76
2022/09/13 02:29:27;;;;;;;7.10;4.13;;;;;;;8.15;100.00;95196.63;5094322;28;20058;-75
2022/09/13 02:32:03;;;;;;;7.28;4.40;;;;;;;8.16;100.00;95192.97;5091356;28;20040;-75
2022/09/13 02:34:45;;;;;;;10.38;4.57;;;;;;;8.17;100.00;95199.00;5092899;28;20044;-75
2022/09/13 02:37:11;;;;;;;9.82;4.45;;;;;;;8.08;100.00;95202.13;5079663;28;20123;-75
2022/09/13 02:39:43;;;;;;;11.68;4.32;;;;;;;8.08;100.00;95207.38;5089444;28;20036;-75
2022/09/13 02:42:18;;;;;;;8.80;4.50;;;;;;;8.06;100.00;95204.22;5092339;28;20036;-75
2022/09/13 02:44:48;;;;;;;13.85;4.82;;;;;;;8.19;100.00;95202.13;5095618;28;20044;-75
2022/09/13 02:47:34;;;;;;;9.73;4.65;;;;;;;8.09;100.00;95203.72;5091845;28;20043;-76
2022/09/13 02:50:21;;;;;;;7.15;4.30;;;;;;;8.12;100.00;95205.81;5093767;28;20652;-76
2022/09/13 02:52:55;;;;;;;8.60;4.53;;;;;;;8.09;100.00;95208.94;5082118;28;20040;-76
2022/09/13 02:55:30;;;;;;;8.93;4.05;;;;;;;8.14;100.00;95211.56;5081810;28;20048;-75
2022/09/13 02:58:09;;;;;;;8.07;4.80;;;;;;;7.99;100.00;95219.41;5091454;28;20040;-76
2022/09/13 03:00:35;;;;;;;7.88;4.60;;;;;;;8.03;100.00;95215.25;5090298;28;20036;-76
2022/09/13 03:03:04;;;;;;;8.20;4.30;;;;;;;8.08;100.00;95207.38;5097428;28;20059;-76
2022/09/13 03:05:30;;;;;;;13.32;4.50;;;;;;;8.08;100.00;95203.97;5084414;28;20081;-75
2022/09/13 03:07:57;;;;;;;10.77;4.60;;;;;;;7.94;100.00;95201.06;5089527;28;20036;-76
2022/09/13 03:10:29;;;;;;;7.88;4.47;;;;;;;7.95;100.00;95202.63;5089060;28;20048;-76
2022/09/13 03:13:13;;;;;;;7.65;4.10;;;;;;;7.99;100.00;95193.22;5089413;28;20043;-75
2022/09/13 03:15:48;;;;;;;;;;;;;;;7.94;100.00;95211.53;5094472;28;20438;-75
2022/09/13 03:18:36;;;;;;;6.60;3.78;;;;;;;7.97;100.00;95211.03;5097426;28;20022;-75
2022/09/13 03:21:10;;;;;;;7.68;3.85;;;;;;;8.02;100.00;95208.41;5086642;28;20065;-75
2022/09/13 03:23:42;;;;;;;8.00;4.07;;;;;;;7.99;100.00;95211.56;5092305;28;20405;-75
2022/09/13 03:26:14;;;;;;;7.15;3.65;;;;;;;7.94;100.00;95214.16;5090313;28;20043;-75
2022/09/13 03:28:54;;;;;;;6.32;3.70;;;;;;;7.93;100.00;95210.75;5088606;28;20040;-75
2022/09/13 03:31:23;;;;;;;5.90;3.65;;;;;;;7.92;100.00;95203.16;5096424;28;20036;-75
2022/09/13 03:33:51;;;;;;;12.98;4.00;;;;;;;7.77;100.00;95207.31;5089822;28;20116;-75
2022/09/13 03:36:32;;;;;;;7.97;4.43;;;;;;;7.81;100.00;95197.09;5097620;28;20051;-75
2022/09/13 03:39:26;;;;;;;8.50;4.30;;;;;;;7.84;100.00;95193.19;5090883;28;20067;-76
2022/09/13 03:41:56;;;;;;;8.38;4.25;;;;;;;7.83;100.00;95183.75;5092915;28;20067;-76
2022/09/13 03:44:24;;;;;;;7.88;4.20;;;;;;;7.71;100.00;95182.16;5094908;28;20452;-76
2022/09/13 03:46:56;;;;;;;11.57;4.20;;;;;;;7.75;100.00;95185.06;5084819;28;20071;-76
2022/09/13 03:49:24;;;;;;;13.00;4.45;;;;;;;7.78;100.00;95190.53;5094090;28;20047;-76
2022/09/13 03:51:51;;;;;;;8.18;4.22;;;;;;;7.73;100.00;95198.41;5092300;28;20543;-76
2022/09/13 03:54:21;;;;;;;9.45;4.30;;;;;;;7.71;100.00;95208.34;5096719;28;20072;-76
2022/09/13 03:57:05;;;;;;;7.47;4.00;;;;;;;7.79;100.00;95210.47;5092817;28;20071;-76
2022/09/13 03:59:31;;;;;;;10.07;4.25;;;;;;;7.74;100.00;95207.84;5092398;28;20032;-76
2022/09/13 04:01:56;;;;;;;8.77;4.03;;;;;;;7.68;100.00;95219.34;5088855;28;20449;-76
2022/09/13 04:04:22;;;;;;;7.38;4.18;;;;;;;7.76;100.00;95204.97;5093825;28;20090;-75
2022/09/13 04:06:47;;;;;;;9.25;4.05;;;;;;;7.67;100.00;95207.31;5090612;28;20448;-76
2022/09/13 04:09:13;;;;;;;7.35;4.05;;;;;;;7.74;100.00;95213.09;5093778;28;20036;-76
2022/09/13 04:11:39;;;;;;;9.07;4.28;;;;;;;7.72;100.00;95209.91;5088865;28;20036;-75
2022/09/13 04:14:05;;;;;;;10.95;4.32;;;;;;;7.69;100.00;95194.72;5090893;27;20386;-76
2022/09/13 04:16:30;;;;;;;7.97;4.30;;;;;;;7.63;100.00;95201.78;5088773;28;20038;-76
2022/09/13 04:18:56;;;;;;;9.02;3.92;;;;;;;7.69;100.00;95205.19;5096044;28;20039;-76
2022/09/13 04:21:22;;;;;;;8.15;4.20;;;;;;;7.68;100.00;95198.38;5087426;28;20036;-75
2022/09/13 04:23:49;;;;;;;13.98;4.35;;;;;;;7.62;100.00;95207.28;5091485;28;20449;-76
2022/09/13 04:26:14;;;;;;;8.13;4.03;;;;;;;7.52;100.00;95204.63;5090794;28;20115;-75
2022/09/13 04:28:40;;;;;;;11.07;4.50;;;;;;;7.61;100.00;95203.06;5088471;28;20064;-75
2022/09/13 04:31:05;;;;;;;7.53;3.78;;;;;;;7.47;100.00;95197.56;5090871;28;20036;-75
2022/09/13 04:33:31;;;;;;;8.68;4.28;;;;;;;7.60;100.00;95191.03;5094146;28;20044;-75
2022/09/13 04:35:58;;;;;;;10.88;4.00;;;;;;;7.61;100.00;95203.06;5092064;28;20560;-75
2022/09/13 04:38:23;;;;;;;6.28;3.67;;;;;;;7.56;100.00;95193.38;5091478;28;20036;-75
2022/09/13 04:40:56;;;;;;;10.82;4.18;;;;;;;7.67;100.00;95202.06;5088447;28;20040;-75
2022/09/13 04:43:22;;;;;;;6.45;3.85;;;;;;;7.51;100.00;95208.28;5092785;28;20040;-76
2022/09/13 04:45:48;;;;;;;10.57;4.18;;;;;;;7.53;100.00;95211.41;5092131;28;20036;-75
2022/09/13 04:48:15;;;;;;;8.45;3.72;;;;;;;7.69;100.00;95207.03;5095706;28;20081;-75
2022/09/13 04:50:40;;;;;;;5.97;3.67;;;;;;;7.62;100.00;95212.50;5091079;28;20040;-75
2022/09/13 04:53:06;;;;;;;7.80;3.90;;;;;;;7.59;100.00;95210.41;5092597;28;20687;-75
2022/09/13 04:55:32;;;;;;;7.18;3.97;;;;;;;7.55;100.00;95204.88;5089823;28;20032;-75
2022/09/13 04:57:57;;;;;;;14.80;4.20;;;;;;;7.51;100.00;95203.06;5091866;28;20044;-75
2022/09/13 05:00:25;;;;;;;9.35;4.22;;;;;;;7.53;100.00;95211.41;5088226;28;20040;-74
2022/09/13 05:02:55;;;;;;;9.00;4.03;;;;;;;7.62;100.00;95217.75;5097595;28;20032;-75
2022/09/13 05:05:21;;;;;;;7.05;3.83;;;;;;;7.62;100.00;95220.38;5087252;28;20059;-76
2022/09/13 05:07:49;;;;;;;8.80;4.13;;;;;;;7.63;100.00;95216.72;5089524;28;20044;-76
2022/09/13 05:10:15;;;;;;;6.70;3.78;;;;;;;7.61;100.00;95219.59;5091495;28;20036;-76
2022/09/13 05:12:41;;;;;;;10.18;4.43;;;;;;;7.63;100.00;95217.50;5095436;28;20390;-77
2022/09/13 05:15:07;;;;;;;9.77;4.15;;;;;;;7.62;100.00;95209.91;5086592;28;20608;-77
2022/09/13 05:17:32;;;;;;;9.95;4.10;;;;;;;7.72;100.00;95215.16;5087870;28;20032;-77
2022/09/13 05:19:58;;;;;;;10.05;4.82;;;;;;;7.85;100.00;95216.50;5089894;28;20039;-77
2022/09/13 05:22:23;;;;;;;7.40;4.00;;;;;;;7.89;100.00;95212.31;5084306;28;20043;-77
2022/09/13 05:24:49;;;;;;;8.35;4.05;;;;;;;7.88;100.00;95213.38;5089932;28;20086;-80
2022/09/13 05:27:15;;;;;;;5.63;3.53;;;;;;;7.90;100.00;95207.88;5089574;28;20047;-78
2022/09/13 05:29:40;;;;;;;8.75;4.30;;;;;;;7.93;100.00;95215.19;5095986;28;20036;-77
2022/09/13 05:32:06;;;;;;;12.65;4.05;;;;;;;8.00;100.00;95222.81;5089325;28;20032;-78
2022/09/13 05:34:31;;;;;;;11.30;3.88;;;;;;;8.05;100.00;95228.84;5108753;28;20629;-78
2022/09/13 05:36:56;;;;;;;6.97;3.75;;;;;;;8.24;100.00;95236.22;5091117;28;20039;-79
2022/09/13 05:39:22;;;;;;;7.25;3.70;;;;;;;8.25;100.00;95227.31;5088909;28;20059;-77
2022/09/13 05:41:48;;;;;;;9.75;4.18;;;;;;;8.34;100.00;95228.38;5092510;28;20525;-78
2022/09/13 05:44:13;;;;;;;6.07;3.60;;;;;;;8.41;100.00;95221.03;5087366;28;20114;-77
2022/09/13 05:46:39;;;;;;;9.02;4.03;;;;;;;8.41;100.00;95221.03;5091042;28;20042;-76
2022/09/13 05:49:05;;;;;;;7.97;4.00;;;;;;;8.49;100.00;95222.34;5089346;28;20036;-78
2022/09/13 05:51:30;;;;;;;10.05;3.58;;;;;;;8.46;100.00;95212.41;5091319;28;20040;-78
2022/09/13 05:53:58;;;;;;;6.90;3.40;;;;;;;8.56;100.00;95222.09;5089686;28;20044;-78
2022/09/13 05:56:27;;;;;;;7.50;3.22;;;;;;;8.62;100.00;95215.78;5095150;28;20036;-78
2022/09/13 05:58:54;;;;;;;7.55;3.30;;;;;;;8.70;100.00;95223.13;5095379;28;20040;-78
2022/09/13 06:01:21;;;;;;;11.10;3.25;;;;;;;8.77;100.00;95217.63;5087684;28;20051;-78
2022/09/13 06:03:48;;;;;;;6.00;3.45;;;;;;;8.86;100.00;95220.50;5088037;28;20428;-78
2022/09/13 06:06:14;;;;;;;7.00;3.15;;;;;;;8.82;100.00;95215.78;5090033;28;20044;-77
2022/09/13 06:08:40;;;;;;;7.10;3.22;;;;;;;8.88;100.00;95218.38;5087929;28;20050;-77
2022/09/13 06:11:08;;;;;;;6.15;2.97;;;;;;;8.92;100.00;95211.56;5089050;28;20036;-78
2022/09/13 06:13:34;;;;;;;5.90;3.03;;;;;;;9.04;100.00;95212.06;5090473;28;20086;-77
2022/09/13 06:16:02;;;;;;;6.00;3.35;;;;;;;9.18;100.00;95215.72;5092675;28;20036;-77
2022/09/13 06:18:28;;;;;;;7.95;3.33;;;;;;;9.23;100.00;95203.63;5083919;28;20032;-77
2022/09/13 06:21:02;;;;;;;6.05;2.72;;;;;;;9.22;100.00;95215.16;5092324;28;20050;-77
2022/09/13 06:23:28;;;;;;;10.15;4.13;;;;;;;9.23;100.00;95219.38;5081499;28;20631;-77
2022/09/13 06:26:05;;;;;;;4.25;2.50;;;;;;;9.33;100.00;95219.34;5090397;28;20060;-77
2022/09/13 06:28:31;;;;;;;5.63;2.90;;;;;;;9.40;100.00;95214.59;5093706;28;20113;-77
2022/09/13 06:31:05;;;;;;;4.15;2.60;;;;;;;9.82;100.00;95210.72;5086857;28;20088;-77
2022/09/13 06:33:32;;;;;;;;;;;;;;;10.65;100.00;95220.72;5089516;28;20050;-77
2022/09/13 06:36:03;;;;;;;4.68;2.33;;;;;;;11.13;100.00;95210.22;5095838;28;19947;-77
2022/09/13 06:38:29;;;;;;;9.02;2.20;;;;;;;11.64;100.00;95203.59;5089815;28;20390;-77
2022/09/13 06:41:08;;;;;;;2.92;1.83;;;;;;;11.79;100.00;95206.03;5087330;28;20054;-78
2022/09/13 06:43:34;;;;;;;4.10;2.10;;;;;;;11.63;100.00;95201.25;5089078;28;20036;-76
2022/09/13 06:46:02;;;;;;;3.67;2.20;;;;;;;12.41;100.00;95212.31;5088505;28;20047;-76
2022/09/13 06:48:32;;;;;;;3.97;2.00;;;;;;;12.60;100.00;95217.56;5090353;28;20791;-76
2022/09/13 06:50:59;;;;;;;10.70;2.15;;;;;;;12.30;100.00;95220.38;5093178;28;20040;-76
2022/09/13 06:53:27;;;;;;;4.22;2.10;;;;;;;12.65;100.00;95210.31;5091208;28;20053;-77
2022/09/13 06:56:26;;;;;;;5.20;2.10;;;;;;;12.54;100.00;95219.50;5094886;28;20417;-77
2022/09/13 06:58:58;;;;;;;2.97;1.90;;;;;;;12.23;100.00;95219.97;5086166;28;20083;-77
2022/09/13 07:01:27;;;;;;;5.40;2.10;;;;;;;12.73;100.00;95216.00;5083223;28;20047;-78
2022/09/13 07:03:57;;;;;;;2.55;1.63;;;;;;;13.04;100.00;95210.22;5084043;28;20498;-77
2022/09/13 07:06:27;;;;;;;2.75;1.90;;;;;;;13.28;100.00;95204.75;5080873;28;20547;-77
2022/09/13 07:08:55;;;;;;;3.95;1.80;;;;;;;13.24;100.00;95204.53;5089067;28;20398;-77
2022/09/13 07:11:28;;;;;;;7.40;2.00;;;;;;;13.83;100.00;95198.66;5091862;28;20032;-77
2022/09/13 07:13:56;;;;;;;3.50;1.85;;;;;;;13.97;100.00;95194.13;5092146;28;20090;-78
2022/09/13 07:16:25;;;;;;;3.97;2.05;;;;;;;14.27;100.00;95194.50;5097985;28;20123;-77
2022/09/13 07:19:04;;;;;;;2.78;1.83;;;;;;;14.73;100.00;95198.72;5091225;28;20058;-78
2022/09/13 07:21:31;;;;;;;2.20;1.50;;;;;;;14.81;100.00;95201.72;5094554;28;20419;-78
2022/09/13 07:23:57;;;;;;;6.43;2.13;;;;;;;15.02;100.00;95207.31;5087618;28;20035;-77
2022/09/13 07:26:23;;;;;;;2.28;1.60;;;;;;;14.73;100.00;95214.63;5098129;28;20058;-78
2022/09/13 07:28:52;;;;;;;3.58;1.92;;;;;;;15.24;100.00;95211.75;5093925;28;20054;-78
2022/09/13 07:31:21;;;;;;;2.80;1.80;;;;;;;15.44;100.00;95204.34;5096768;28;20039;-83
2022/09/13 07:33:52;;;;;;;3.20;1.60;;;;;;;15.76;100.00;95201.31;5101917;28;20062;-77
2022/09/13 07:36:17;;;;;;;4.35;1.80;;;;;;;15.90;100.00;95205.72;5094826;28;20047;-77
2022/09/13 07:38:46;;;;;;;4.20;1.92;;;;;;;15.73;100.00;95212.53;5105442;28;20046;-82
2022/09/13 07:41:14;;;;;;;2.35;1.65;;;;;;;15.79;100.00;95207.09;5112183;28;20046;-82
2022/09/13 07:43:40;;;;;;;3.05;1.70;;;;;;;16.26;100.00;95196.69;5129057;28;20024;-81
2022/09/13 07:46:08;;;;;;;2.35;1.65;;;;;;;16.33;100.00;95201.53;5126255;28;20036;-77
2022/09/13 07:48:38;;;;;;;1.80;1.55;;;;;;;16.57;100.00;95206.34;5117713;28;20023;-77
2022/09/13 07:51:12;;;;;;;2.92;1.88;;;;;;;16.62;100.00;95203.50;5112360;28;20047;-77
2022/09/13 07:53:39;;;;;;;3.25;1.95;;;;;;;16.34;100.00;95214.50;5114402;28;20253;-77
2022/09/13 07:56:11;;;;;;;5.57;1.83;;;;;;;16.31;100.00;95215.13;5116673;28;20050;-77
2022/09/13 07:58:38;;;;;;;2.63;1.80;;;;;;;16.01;100.00;95217.59;5117170;28;20044;-77
2022/09/13 08:01:04;;;;;;;4.32;1.80;;;;;;;16.34;100.00;95219.78;5111309;28;20059;-77
2022/09/13 08:03:30;;;;;;;4.07;1.90;;;;;;;16.62;100.00;95214.94;5117441;28;20083;-77
2022/09/13 08:05:55;;;;;;;4.50;1.90;;;;;;;16.69;100.00;95203.03;5117365;28;20065;-76
2022/09/13 08:08:21;;;;;;;1.92;1.60;;;;;;;17.30;100.00;95201.00;5100211;28;20067;-76
2022/09/13 08:10:46;;;;;;;4.25;1.98;;;;;;;17.35;100.00;95202.72;5088904;28;20044;-76
2022/09/13 08:13:15;;;;;;;2.97;1.75;;;;;;;17.71;100.00;95196.09;5086609;28;20119;-77
2022/09/13 08:15:40;;;;;;;2.45;1.67;;;;;;;17.43;100.00;95209.88;5082872;28;20036;-77
2022/09/13 08:18:06;;;;;;;3.60;1.83;;;;;;;17.57;100.00;95203.53;5091073;28;20699;-76
2022/09/13 08:20:36;;;;;;;3.60;1.90;;;;;;;18.03;100.00;95209.88;5080016;28;20071;-76
2022/09/13 08:23:01;;;;;;;3.92;1.98;;;;;;;18.18;96.15;95206.63;5090598;28;20044;-77
2022/09/13 08:25:27;;;;;;;5.03;1.85;;;;;;;18.21;94.96;95199.09;5090921;28;20048;-77
2022/09/13 08:27:52;;;;;;;2.72;1.90;;;;;;;18.25;97.76;95203.44;5095390;28;20032;-76
2022/09/13 08:30:18;;;;;;;2.58;1.90;;;;;;;18.38;97.71;95206.94;5093533;28;20420;-76
2022/09/13 08:32:43;;;;;;;3.17;1.83;;;;;;;18.11;99.10;95206.34;5095195;28;22062;-77
2022/09/13 08:35:09;;;;;;;4.50;1.77;;;;;;;18.32;100.00;95206.38;5094931;28;20036;-77
2022/09/13 08:37:34;;;;;;;3.47;1.75;;;;;;;18.42;100.00;95205.19;5083774;28;20098;-77
2022/09/13 08:40:00;;;;;;;3.55;2.00;;;;;;;18.66;99.16;95199.19;5087152;28;20033;-77
2022/09/13 08:42:45;;;;;;;2.20;1.60;;;;;;;18.67;97.47;95205.28;5089576;28;20101;-76
2022/09/13 08:45:11;;;;;;;3.42;1.92;;;;;;;18.65;96.00;95194.19;5088277;28;20062;-77
2022/09/13 08:47:48;;;;;;;3.05;2.00;;;;;;;18.60;100.00;95205.03;5090259;28;20048;-77
2022/09/13 08:50:32;;;;;;;2.70;1.83;;;;;;;18.90;98.65;95212.94;5077814;28;20044;-76
2022/09/13 08:53:11;;;;;;;4.53;2.28;;;;;;;18.97;96.61;95208.59;5082142;28;20036;-77
2022/09/13 08:55:49;;;;;;;3.90;2.60;;;;;;;18.76;100.00;95186.53;5101959;28;21178;-77
2022/09/13 08:58:38;;;;;;;2.33;1.83;;;;;;;18.95;98.63;95200.16;5089410;28;20071;-79
2022/09/13 09:01:22;;;;;;;4.35;2.28;;;;;;;19.19;99.63;95183.44;5086178;28;20040;-83
2022/09/13 09:04:15;;;;;;;3.60;2.10;;;;;;;19.38;98.60;95190.09;5084141;28;20036;-78
2022/09/13 09:06:41;;;;;;;4.30;2.00;;;;;;;19.28;100.00;95187.84;5089340;28;20036;-77
2022/09/13 09:09:15;;;;;;;3.55;2.20;;;;;;;19.51;90.81;95191.66;5085234;28;20049;-84
2022/09/13 09:11:53;;;;;;;5.35;2.40;;;;;;;19.54;92.64;95188.31;5085163;28;20425;-83
2022/09/13 09:14:29;;;;;;;3.55;2.38;;;;;;;19.97;89.11;95177.38;5088115;28;20043;-77
2022/09/13 09:17:03;;;;;;;4.07;2.20;;;;;;;19.55;89.69;95189.06;5087774;28;20131;-82
2022/09/13 09:19:39;;;;;;;4.57;2.30;;;;;;;19.39;97.14;95191.66;5101150;28;20051;-78
2022/09/13 09:22:12;;;;;;;4.25;2.35;;;;;;;19.73;92.32;95189.63;5085747;28;20043;-78
2022/09/13 09:24:39;;;;;;;6.93;2.42;;;;;;;19.50;93.48;95187.41;5109752;28;20058;-78
2022/09/13 09:27:14;;;;;;;4.55;2.95;;;;;;;19.50;96.71;95187.41;5098293;28;20072;-78
2022/09/13 09:29:45;;;;;;;7.00;2.80;;;;;;;19.70;90.70;95184.97;5086634;28;20032;-78
2022/09/13 09:32:35;;;;;;;5.20;2.75;;;;;;;19.64;93.85;95186.28;5083802;28;20040;-78
2022/09/13 09:35:07;;;;;;;5.43;2.60;;;;;;;19.93;93.02;95176.50;5092684;28;20119;-78
2022/09/13 09:37:36;;;;;;;6.80;2.60;;;;;;;20.00;90.78;95176.72;5087098;28;20044;-77
2022/09/13 09:40:09;;;;;;;5.60;2.60;;;;;;;20.08;87.25;95175.78;5088324;28;20040;-78
2022/09/13 09:42:42;;;;;;;4.95;2.85;;;;;;;20.29;83.27;95177.53;5085258;28;20131;-78
2022/09/13 09:45:29;;;;;;;8.50;2.63;;;;;;;20.20;82.33;95180.31;5077895;28;20048;-79
2022/09/13 09:47:58;;;;;;;5.47;2.58;;;;;;;20.31;88.39;95169.94;5106067;28;20088;-78
2022/09/13 09:50:28;;;;;;;4.85;2.95;;;;;;;20.34;85.99;95162.03;5081022;28;20051;-79
2022/09/13 09:53:02;;;;;;;4.97;2.83;;;;;;;20.38;88.97;95160.19;5095361;28;20125;-78
2022/09/13 09:55:29;;;;;;;8.57;2.97;;;;;;;20.62;85.46;95173.81;5106297;28;20047;-77
2022/09/13 09:57:54;;;;;;;6.45;3.20;;;;;;;20.75;83.65;95178.00;5110049;28;20110;-79
2022/09/13 10:00:23;;;;;;;6.07;3.33;;;;;;;21.05;80.57;95170.34;5100765;28;20127;-78
2022/09/13 10:02:53;;;;;;;8.05;2.90;;;;;;;21.21;79.19;95162.31;5090085;28;20044;-79
2022/09/13 10:05:21;;;;;;;10.05;2.92;;;;;;;21.56;76.17;95171.56;5102037;28;20055;-78
2022/09/13 10:07:56;;;;;;;5.88;2.90;;;;;;;21.87;75.01;95154.66;5096248;28;20055;-80
2022/09/13 10:10:35;;;;;;;6.22;2.72;;;;;;;22.47;71.22;95154.34;5094114;28;20040;-78
2022/09/13 10:13:02;;;;;;;5.03;2.60;;;;;;;23.43;69.33;95142.13;5086902;28;21205;-78
2022/09/13 10:15:32;;;;;;;7.30;2.92;;;;;;;23.67;64.22;95136.34;5096218;28;20459;-84
2022/09/13 10:18:05;;;;;;;8.50;2.90;;;;;;;24.15;64.94;95132.38;5096554;28;20126;-77
2022/09/13 10:20:33;;;;;;;6.95;2.88;;;;;;;24.72;62.09;95122.28;5089476;28;20040;-79
2022/09/13 10:23:14;;;;;;;6.85;2.70;;;;;;;25.21;62.71;95135.72;5096002;28;20481;-78
2022/09/13 10:25:42;;;;;;;4.85;2.95;;;;;;;24.77;63.42;95134.59;5089448;28;20036;-77
2022/09/13 10:28:15;;;;;;;6.32;2.80;;;;;;;25.53;63.14;95129.81;5093463;28;20036;-78
2022/09/13 10:30:46;;;;;;;5.70;2.88;;;;;;;25.52;58.08;95133.69;5087273;28;20036;-78
2022/09/13 10:33:32;;;;;;;4.68;2.78;;;;;;;25.53;58.62;95135.22;5089549;28;20075;-78
2022/09/13 10:36:23;;;;;;;5.50;2.70;;;;;;;26.05;58.73;95133.22;5092842;28;20040;-77
2022/09/13 10:39:01;;;;;;;6.13;2.92;;;;;;;26.01;56.85;95132.44;5095981;28;20054;-79
2022/09/13 10:41:30;;;;;;;4.40;2.65;;;;;;;25.18;52.70;95125.72;5096804;28;20042;-78
2022/09/13 10:44:01;;;;;;;6.97;2.65;;;;;;;25.91;53.78;95117.72;5102960;28;20039;-79
2022/09/13 10:46:30;;;;;;;4.95;2.90;;;;;;;25.82;54.95;95124.63;5103606;28;20092;-78
2022/09/13 10:48:56;;;;;;;6.10;2.80;;;;;;;26.56;52.53;95122.59;5090010;28;20040;-80
2022/09/13 10:51:24;;;;;;;4.90;2.70;;;;;;;27.12;51.38;95121.16;5093410;28;20051;-77
2022/09/13 10:53:50;;;;;;;8.95;3.22;;;;;;;27.23;52.08;95120.38;5099979;28;20145;-80
2022/09/13 10:56:25;;;;;;;5.20;2.60;;;;;;;27.21;52.31;95111.88;5100373;28;20699;-79
2022/09/13 10:58:50;;;;;;;6.13;3.13;;;;;;;26.95;50.23;95106.47;5103681;28;20047;-78
2022/09/13 11:01:45;;;;;;;7.10;3.80;;;;;;;27.30;48.36;95114.97;5105964;28;20040;-78
2022/09/13 11:04:20;;;;;;;5.00;2.50;;;;;;;27.69;46.88;95114.13;5097257;28;20051;-79
2022/09/13 11:07:02;;;;;;;6.72;2.70;;;;;;;27.75;46.66;95099.06;5091046;28;20050;-79
2022/09/13 11:09:35;;;;;;;5.03;2.55;;;;;;;27.47;46.83;95097.97;5095039;28;20513;-77
2022/09/13 11:12:23;;;;;;;3.03;2.27;;;;;;;28.56;46.41;95092.16;5104886;28;20165;-78
2022/09/13 11:15:39;;;;;;;2.95;2.17;;;;;;;28.11;46.31;95096.25;5095108;28;20770;-78
2022/09/13 11:18:44;;;;;;;5.03;2.40;;;;;;;29.28;49.63;95091.66;5053692;28;20151;-79
2022/09/13 11:21:20;;;;;;;4.53;2.65;;;;;;;29.11;47.95;95082.50;5038557;28;20063;-78
2022/09/13 11:23:51;;;;;;;4.40;2.55;;;;;;;27.40;48.15;95087.19;5087329;28;20138;-79
2022/09/13 11:26:45;;;;;;;7.25;2.33;;;;;;;28.03;46.30;95088.56;5097568;28;20056;-79
2022/09/13 11:29:24;;;;;;;3.40;2.13;;;;;;;27.74;42.83;95084.03;5086204;28;20068;-78
2022/09/13 11:32:08;;;;;;;3.70;2.20;;;;;;;27.63;42.95;95083.28;5086291;28;20296;-79
2022/09/13 11:35:03;;;;;;;6.25;2.05;;;;;;;27.63;44.44;95085.97;5100522;28;20040;-78
2022/09/13 11:37:50;;;;;;;5.05;2.20;;;;;;;27.43;45.36;95081.00;5096029;28;20079;-77
2022/09/13 11:40:27;;;;;;;4.18;2.00;;;;;;;27.57;44.00;95090.22;5083103;28;20513;-78
2022/09/13 11:43:08;;;;;;;5.35;2.15;;;;;;;27.48;45.11;95083.31;5095282;28;20489;-78
2022/09/13 11:45:48;;;;;;;4.40;2.20;;;;;;;27.36;45.75;95083.72;5096053;28;20390;-78
2022/09/13 11:48:34;;;;;;;4.75;2.60;;;;;;;26.97;48.36;95087.97;5106246;28;20040;-78
2022/09/13 11:51:25;;;;;;;3.85;1.98;;;;;;;26.47;45.05;95087.88;5091364;28;20051;-78
2022/09/13 11:54:15;;;;;;;5.72;2.10;;;;;;;26.28;45.00;95086.31;5098378;28;20512;-78